Time;durP1;ratioP1;P1;durP2;ratioP2;P2;SDS_P1;SDS_P2;PMS_P1;PMS_P2;Temp;Humidity;BMP_temperature;BMP_pressure;BME280_temperature;BME280_humidity;BME280_pressure;Samples;Min_cycle;Max_cycle;Signal;HPM_P1;HPM_P2
2024/02/13 11:18:55;;;;;;;1.07;0.20;;;9.80;99.90;;;;;;4937182;23;20247;-82
2024/02/13 11:21:25;;;;;;;0.77;0.40;;;10.10;99.90;;;;;;4936759;29;20306;-83
2024/02/13 11:23:54;;;;;;;0.70;0.40;;;10.20;99.90;;;;;;4936714;29;20319;-79
2024/02/13 11:26:21;;;;;;;2.37;0.50;;;10.20;99.90;;;;;;4919992;29;20238;-84
2024/02/13 11:28:48;;;;;;;1.17;0.50;;;10.10;99.90;;;;;;4917712;29;20224;-82
2024/02/13 11:31:16;;;;;;;0.53;0.30;;;10.20;99.90;;;;;;4916041;29;20206;-83
2024/02/13 11:34:06;;;;;;;1.13;0.47;;;10.30;99.90;;;;;;4919228;29;20719;-84
2024/02/13 11:36:34;;;;;;;3.37;0.50;;;10.30;99.90;;;;;;4916863;29;20229;-84
2024/02/13 11:39:05;;;;;;;0.93;0.50;;;10.30;99.90;;;;;;4917578;29;20216;-82
2024/02/13 11:41:33;;;;;;;0.70;0.40;;;10.50;99.90;;;;;;4918148;29;20661;-83
2024/02/13 11:44:08;;;;;;;1.57;0.30;;;10.50;99.90;;;;;;4918026;29;20767;-83
2024/02/13 11:46:36;;;;;;;2.50;0.37;;;10.60;99.90;;;;;;4913042;29;20228;-82
2024/02/13 11:49:07;;;;;;;3.13;0.63;;;10.70;99.90;;;;;;4915885;29;20217;-83
2024/02/13 11:51:36;;;;;;;3.37;0.37;;;10.90;99.90;;;;;;4916813;29;20202;-84
2024/02/13 11:54:05;;;;;;;0.73;0.30;;;10.90;99.90;;;;;;4917148;29;20269;-83
2024/02/13 11:56:32;;;;;;;0.67;0.30;;;10.80;99.90;;;;;;4916966;29;20230;-82
2024/02/13 11:59:05;;;;;;;1.73;0.30;;;10.80;99.90;;;;;;4916942;29;20218;-84
2024/02/13 12:01:34;;;;;;;1.30;0.40;;;10.80;99.90;;;;;;4916517;29;20288;-84
2024/02/13 12:04:01;;;;;;;0.20;0.13;;;10.80;99.90;;;;;;4917062;29;20240;-85
2024/02/13 12:06:30;;;;;;;0.83;0.47;;;11.00;99.90;;;;;;4916683;29;20240;-81
2024/02/13 12:08:59;;;;;;;0.80;0.43;;;11.10;99.90;;;;;;4917033;29;20245;-84
2024/02/13 12:11:28;;;;;;;0.77;0.40;;;11.20;99.90;;;;;;4917796;29;20756;-84
2024/02/13 12:13:56;;;;;;;0.43;0.30;;;11.50;99.90;;;;;;4917102;29;20223;-85
2024/02/13 12:16:23;;;;;;;1.17;0.60;;;11.60;99.90;;;;;;4916897;29;20708;-80
2024/02/13 12:18:50;;;;;;;1.93;0.50;;;11.60;99.90;;;;;;4916483;29;20829;-85
2024/02/13 12:21:17;;;;;;;0.77;0.40;;;11.60;99.90;;;;;;4916888;29;20285;-84
2024/02/13 12:23:47;;;;;;;0.57;0.33;;;11.50;99.90;;;;;;4909043;29;20237;-84
2024/02/13 12:26:17;;;;;;;1.63;0.50;;;11.40;99.90;;;;;;4921208;29;20237;-85
2024/02/13 12:28:46;;;;;;;1.03;0.37;;;11.50;99.90;;;;;;4921250;29;20296;-85
2024/02/13 12:31:13;;;;;;;2.03;0.40;;;11.50;99.90;;;;;;4920788;29;20668;-84
2024/02/13 12:33:40;;;;;;;1.57;0.50;;;11.50;99.90;;;;;;4920946;29;20301;-85
2024/02/13 12:36:18;;;;;;;4.13;0.93;;;11.60;99.90;;;;;;4916259;29;20294;-85
2024/02/13 12:38:46;;;;;;;1.70;0.50;;;11.70;99.90;;;;;;4920899;29;20213;-84
2024/02/13 12:41:14;;;;;;;1.10;0.50;;;11.70;99.90;;;;;;4922019;29;20233;-84
2024/02/13 12:43:41;;;;;;;2.77;0.60;;;11.60;99.90;;;;;;4921212;29;20218;-84
2024/02/13 12:46:10;;;;;;;2.30;0.60;;;11.40;99.90;;;;;;4921569;29;20229;-84
2024/02/13 12:48:39;;;;;;;2.40;0.60;;;11.30;99.90;;;;;;4921818;29;20206;-84
2024/02/13 12:51:08;;;;;;;1.87;0.70;;;11.10;99.90;;;;;;4921088;29;20213;-85
2024/02/13 12:53:36;;;;;;;3.90;0.60;;;11.10;99.90;;;;;;4920448;29;20296;-85
2024/02/13 12:56:04;;;;;;;1.20;0.63;;;11.10;99.90;;;;;;4909826;29;20264;-82
2024/02/13 12:58:32;;;;;;;6.07;0.33;;;11.10;99.90;;;;;;4913783;29;20743;-83
2024/02/13 13:01:03;;;;;;;1.73;0.47;;;11.10;99.90;;;;;;4911554;29;20311;-83
2024/02/13 13:03:30;;;;;;;5.20;0.60;;;11.20;99.90;;;;;;4920137;29;20261;-84
2024/02/13 13:05:57;;;;;;;0.87;0.40;;;11.30;99.90;;;;;;4918779;29;20612;-83
2024/02/13 13:08:25;;;;;;;2.97;0.43;;;11.40;99.90;;;;;;4919660;29;20245;-83
2024/02/13 13:10:52;;;;;;;0.63;0.50;;;11.50;99.90;;;;;;4919126;29;20234;-80
2024/02/13 13:13:22;;;;;;;2.27;0.40;;;11.50;99.90;;;;;;4919366;29;20707;-78
2024/02/13 13:15:49;;;;;;;3.20;0.50;;;11.40;99.90;;;;;;4919662;29;20249;-81
2024/02/13 13:18:18;;;;;;;0.83;0.50;;;11.20;99.90;;;;;;4919140;29;20244;-80
2024/02/13 13:20:46;;;;;;;0.90;0.50;;;11.20;99.90;;;;;;4919204;29;20549;-80
2024/02/13 13:23:15;;;;;;;1.10;0.50;;;11.20;99.90;;;;;;4919161;29;20216;-82
2024/02/13 13:25:45;;;;;;;2.40;0.57;;;11.10;99.90;;;;;;4919005;29;20237;-78
2024/02/13 13:28:15;;;;;;;0.57;0.50;;;11.20;99.90;;;;;;4920276;29;20209;-80
2024/02/13 13:30:46;;;;;;;1.37;0.60;;;11.30;99.90;;;;;;4919288;29;20210;-82
2024/02/13 13:33:17;;;;;;;0.80;0.60;;;11.30;99.90;;;;;;4918357;29;20205;-81
2024/02/13 13:35:46;;;;;;;1.20;0.60;;;11.20;99.90;;;;;;4919455;29;20720;-84
2024/02/13 13:38:13;;;;;;;0.80;0.60;;;11.20;99.90;;;;;;4918942;29;20202;-79
2024/02/13 13:40:39;;;;;;;0.80;0.50;;;11.40;99.90;;;;;;4918947;29;20304;-83
2024/02/13 13:43:08;;;;;;;0.67;0.47;;;11.40;99.90;;;;;;4918522;29;20265;-80
2024/02/13 13:45:35;;;;;;;1.90;0.50;;;11.40;99.90;;;;;;4918239;29;20241;-81
2024/02/13 13:48:15;;;;;;;0.87;0.60;;;11.50;99.90;;;;;;4918046;29;20237;-79
2024/02/13 13:50:43;;;;;;;1.07;0.40;;;11.50;99.90;;;;;;4918314;29;20245;-80
2024/02/13 13:53:10;;;;;;;3.17;0.70;;;11.50;99.90;;;;;;4917666;29;20201;-82
2024/02/13 13:55:38;;;;;;;0.90;0.60;;;11.40;99.90;;;;;;4918372;29;20316;-84
2024/02/13 13:58:06;;;;;;;1.00;0.50;;;11.30;99.90;;;;;;4919229;29;20280;-84
2024/02/13 14:00:35;;;;;;;0.60;0.50;;;11.40;99.90;;;;;;4919633;29;20209;-85
2024/02/13 14:03:02;;;;;;;1.33;0.60;;;11.30;99.90;;;;;;4919545;29;20252;-85
2024/02/13 14:05:31;;;;;;;1.43;0.53;;;11.20;99.90;;;;;;4919266;29;20244;-82
2024/02/13 14:07:58;;;;;;;1.03;0.53;;;11.10;99.90;;;;;;4921116;29;20214;-84
2024/02/13 14:10:25;;;;;;;2.67;0.90;;;11.00;99.90;;;;;;4930607;29;20213;-83
2024/02/13 14:12:52;;;;;;;2.70;0.80;;;11.00;99.90;;;;;;4929778;29;20211;-83
2024/02/13 14:15:19;;;;;;;1.03;0.63;;;11.00;99.90;;;;;;4942537;29;20240;-81
2024/02/13 14:17:46;;;;;;;1.43;0.80;;;11.20;99.90;;;;;;4942538;29;20206;-81
2024/02/13 14:20:14;;;;;;;3.77;0.90;;;11.10;99.90;;;;;;4927241;29;20209;-83
2024/02/13 14:22:43;;;;;;;1.53;0.63;;;11.20;99.90;;;;;;4919157;29;20210;-84
2024/02/13 14:25:10;;;;;;;3.37;0.63;;;11.30;99.90;;;;;;4919145;29;20234;-84
2024/02/13 14:27:38;;;;;;;1.03;0.70;;;11.30;99.90;;;;;;4922947;29;20205;-78
2024/02/13 14:30:07;;;;;;;2.13;0.60;;;11.30;99.90;;;;;;4936390;29;20233;-84
2024/02/13 14:32:34;;;;;;;1.10;0.50;;;11.20;99.90;;;;;;4935819;29;20257;-82
2024/02/13 14:35:01;;;;;;;2.80;0.80;;;11.30;99.90;;;;;;4934900;29;20257;-84
2024/02/13 14:37:28;;;;;;;1.73;0.70;;;11.20;99.90;;;;;;4927852;29;20238;-84
2024/02/13 14:39:58;;;;;;;2.40;0.87;;;11.20;99.90;;;;;;4922983;29;20237;-84
2024/02/13 14:42:25;;;;;;;2.17;0.63;;;11.20;99.90;;;;;;4918862;29;20297;-85
2024/02/13 14:44:52;;;;;;;1.47;0.77;;;11.00;99.90;;;;;;4917773;29;20364;-82
2024/02/13 14:47:21;;;;;;;3.73;0.60;;;11.00;99.90;;;;;;4918832;29;20304;-80
2024/02/13 14:49:48;;;;;;;2.30;0.60;;;11.00;99.90;;;;;;4918582;29;20209;-84
2024/02/13 14:52:15;;;;;;;3.03;1.00;;;10.90;99.90;;;;;;4918485;29;20241;-84
2024/02/13 14:54:44;;;;;;;2.10;0.67;;;10.90;99.90;;;;;;4918721;29;20237;-82
2024/02/13 14:57:12;;;;;;;1.60;0.93;;;10.90;99.90;;;;;;4918298;29;20616;-83
2024/02/13 14:59:39;;;;;;;2.67;0.70;;;10.90;99.90;;;;;;4918701;29;20241;-84
2024/02/13 15:02:08;;;;;;;2.17;1.00;;;10.80;99.90;;;;;;4918255;29;20220;-84
2024/02/13 15:04:36;;;;;;;0.90;0.60;;;10.80;99.90;;;;;;4918225;29;20234;-84
2024/02/13 15:07:04;;;;;;;2.20;0.80;;;10.80;99.90;;;;;;4918672;29;20210;-84
2024/02/13 15:09:30;;;;;;;1.77;0.60;;;10.80;99.90;;;;;;4918552;29;20217;-84
2024/02/13 15:11:58;;;;;;;2.30;0.70;;;10.80;99.90;;;;;;4918373;29;20225;-84
2024/02/13 15:14:27;;;;;;;0.80;0.50;;;10.80;99.90;;;;;;4918182;29;20684;-83
2024/02/13 15:16:54;;;;;;;1.50;0.63;;;10.90;99.90;;;;;;4917949;29;20214;-84
2024/02/13 15:19:22;;;;;;;4.13;0.60;;;10.80;99.90;;;;;;4917717;29;20304;-83
2024/02/13 15:21:49;;;;;;;0.93;0.50;;;10.80;99.90;;;;;;4917605;29;20270;-83
2024/02/13 15:24:17;;;;;;;1.20;0.40;;;10.80;99.90;;;;;;4917948;29;20212;-83
2024/02/13 15:26:44;;;;;;;0.90;0.60;;;10.80;99.90;;;;;;4917787;29;20573;-83
2024/02/13 15:29:13;;;;;;;2.17;0.60;;;10.80;99.90;;;;;;4918115;29;20574;-84
2024/02/13 15:31:42;;;;;;;2.10;0.73;;;10.80;99.90;;;;;;4917756;29;20205;-83
2024/02/13 15:34:10;;;;;;;1.13;0.50;;;10.70;99.90;;;;;;4917604;29;20209;-83
2024/02/13 15:36:48;;;;;;;3.13;0.70;;;10.80;99.90;;;;;;4917692;29;20206;-83
2024/02/13 15:47:33;;;;;;;0.50;0.30;;;10.80;99.90;;;;;;4917409;29;20217;-83
2024/02/13 15:50:01;;;;;;;1.43;0.63;;;10.60;99.90;;;;;;4917602;29;20205;-83
2024/02/13 15:52:27;;;;;;;0.70;0.50;;;10.60;99.90;;;;;;4917772;29;20241;-84
2024/02/13 15:54:54;;;;;;;2.07;0.57;;;10.70;99.90;;;;;;4917207;29;20317;-84
2024/02/13 15:57:24;;;;;;;3.30;1.07;;;10.70;99.90;;;;;;4917240;29;20617;-79
2024/02/13 15:59:51;;;;;;;0.97;0.60;;;10.70;99.90;;;;;;4917211;29;20209;-83
2024/02/13 16:02:19;;;;;;;2.53;0.70;;;10.80;99.90;;;;;;4918174;29;20234;-82
2024/02/13 16:04:47;;;;;;;1.43;0.80;;;10.80;99.90;;;;;;4919453;29;20301;-83
2024/02/13 16:07:16;;;;;;;1.20;0.50;;;10.70;99.90;;;;;;4920565;29;20399;-80
2024/02/13 16:09:43;;;;;;;2.03;0.60;;;10.60;99.90;;;;;;4919653;29;20577;-82
2024/02/13 16:12:10;;;;;;;3.27;0.70;;;10.70;99.90;;;;;;4917909;29;20209;-83
2024/02/13 16:14:37;;;;;;;2.07;0.80;;;10.60;99.90;;;;;;4917279;29;20229;-83
2024/02/13 16:17:04;;;;;;;0.90;0.40;;;10.50;99.90;;;;;;4916733;29;20763;-82
2024/02/13 16:19:31;;;;;;;1.00;0.70;;;10.40;99.90;;;;;;4916373;29;20302;-83
2024/02/13 16:22:00;;;;;;;0.70;0.60;;;10.30;99.90;;;;;;4917167;29;20305;-83
2024/02/13 16:24:26;;;;;;;1.00;0.53;;;10.30;99.90;;;;;;4916898;29;20645;-83
2024/02/13 16:26:53;;;;;;;1.10;0.60;;;10.30;99.90;;;;;;4917442;29;20706;-83
2024/02/13 16:29:22;;;;;;;1.70;0.80;;;10.30;99.90;;;;;;4917095;29;20252;-83
2024/02/13 16:31:53;;;;;;;2.37;1.07;;;10.30;99.90;;;;;;4917120;29;20236;-83
2024/02/13 16:34:20;;;;;;;2.63;1.53;;;10.20;99.90;;;;;;4916873;29;20213;-83
2024/02/13 16:36:47;;;;;;;2.73;0.90;;;10.20;99.90;;;;;;4917491;29;20296;-83
2024/02/13 16:39:17;;;;;;;1.73;0.87;;;10.20;99.90;;;;;;4917084;29;20740;-83
2024/02/13 16:41:45;;;;;;;1.80;0.70;;;10.10;99.90;;;;;;4917253;29;20206;-84
2024/02/13 16:44:17;;;;;;;3.87;0.73;;;10.20;99.90;;;;;;4916851;29;20216;-84
2024/02/13 16:46:46;;;;;;;2.53;0.60;;;10.20;99.90;;;;;;4917132;29;20237;-83
2024/02/13 16:49:13;;;;;;;1.10;0.53;;;10.30;99.90;;;;;;4916862;29;20212;-79
2024/02/13 16:51:40;;;;;;;4.50;0.80;;;10.30;99.90;;;;;;4917092;29;20216;-84
2024/02/13 16:54:08;;;;;;;1.63;0.70;;;10.20;99.90;;;;;;4917428;29;20300;-82
2024/02/13 16:56:37;;;;;;;1.90;0.70;;;10.20;99.90;;;;;;4917131;29;20266;-81
2024/02/13 16:59:04;;;;;;;2.77;0.50;;;10.20;99.90;;;;;;4918975;29;20209;-79
2024/02/13 17:01:31;;;;;;;1.53;0.90;;;10.20;99.90;;;;;;4917479;29;20243;-83
2024/02/13 17:04:00;;;;;;;3.00;0.90;;;10.10;99.90;;;;;;4917602;29;20296;-80
2024/02/13 17:06:27;;;;;;;4.13;1.13;;;10.00;99.90;;;;;;4917348;29;20644;-84
2024/02/13 17:08:54;;;;;;;0.80;0.60;;;10.00;99.90;;;;;;4921166;29;20304;-84
2024/02/13 17:11:23;;;;;;;1.77;0.83;;;10.00;99.90;;;;;;4923649;29;20621;-84
2024/02/13 17:13:51;;;;;;;2.10;0.77;;;10.10;99.90;;;;;;4920945;29;20617;-79
2024/02/13 17:16:19;;;;;;;3.50;0.90;;;10.10;99.90;;;;;;4913488;29;20270;-84
2024/02/13 17:18:46;;;;;;;2.63;0.97;;;10.10;99.90;;;;;;4919935;29;20296;-83
2024/02/13 17:21:13;;;;;;;1.30;0.87;;;10.00;99.90;;;;;;4919924;29;20261;-83
2024/02/13 17:23:40;;;;;;;1.80;0.87;;;9.90;99.90;;;;;;4919986;29;20208;-83
2024/02/13 17:26:07;;;;;;;1.00;0.67;;;9.80;99.90;;;;;;4919622;29;20273;-82
2024/02/13 17:28:35;;;;;;;3.03;1.13;;;9.90;99.90;;;;;;4919900;29;20210;-80
2024/02/13 17:31:04;;;;;;;2.17;0.90;;;9.80;99.90;;;;;;4920825;29;20228;-82
2024/02/13 17:33:31;;;;;;;1.67;1.00;;;9.80;99.90;;;;;;4920254;29;20230;-84
2024/02/13 17:35:58;;;;;;;1.70;0.80;;;9.90;99.90;;;;;;4914684;29;20293;-79
2024/02/13 17:38:27;;;;;;;1.97;1.03;;;9.80;99.90;;;;;;4918479;29;20209;-80
2024/02/13 17:40:54;;;;;;;2.77;1.03;;;9.80;99.90;;;;;;4919131;29;20221;-80
2024/02/13 17:43:21;;;;;;;1.43;0.80;;;9.70;99.90;;;;;;4919538;29;20269;-80
2024/02/13 17:45:49;;;;;;;2.07;1.30;;;9.60;99.90;;;;;;4914819;29;20272;-79
2024/02/13 17:48:17;;;;;;;1.50;0.90;;;9.60;99.90;;;;;;4920392;29;20550;-78
2024/02/13 17:50:46;;;;;;;1.97;0.90;;;9.70;99.90;;;;;;4919669;29;20210;-77
2024/02/13 17:53:14;;;;;;;1.80;1.00;;;9.70;99.90;;;;;;4937590;29;20210;-76
2024/02/13 17:55:42;;;;;;;3.43;0.97;;;9.80;99.90;;;;;;4937305;29;20227;-77
2024/02/13 17:58:09;;;;;;;1.63;0.83;;;9.80;99.90;;;;;;4922122;29;20273;-80
2024/02/13 18:00:43;;;;;;;0.77;0.60;;;9.80;99.90;;;;;;4920135;29;20206;-79
2024/02/13 18:03:11;;;;;;;1.27;0.60;;;9.80;99.90;;;;;;4919323;29;20210;-78
2024/02/13 18:05:39;;;;;;;3.47;1.20;;;9.80;99.90;;;;;;4918099;29;20244;-79
2024/02/13 18:08:06;;;;;;;1.50;0.90;;;9.80;99.90;;;;;;4919223;29;20657;-81
2024/02/13 18:10:34;;;;;;;2.53;0.80;;;9.80;99.90;;;;;;4919202;29;20790;-83
2024/02/13 18:13:00;;;;;;;1.47;0.70;;;9.80;99.90;;;;;;4920329;29;20205;-82
2024/02/13 18:15:28;;;;;;;1.47;0.83;;;9.90;99.90;;;;;;4919031;29;20740;-78
2024/02/13 18:17:55;;;;;;;3.40;0.87;;;9.90;99.90;;;;;;4917098;29;20296;-79
2024/02/13 18:20:24;;;;;;;1.73;0.70;;;9.90;99.90;;;;;;4917697;29;20245;-78
2024/02/13 18:22:52;;;;;;;2.30;1.00;;;9.90;99.90;;;;;;4916178;29;20249;-79
2024/02/13 18:25:19;;;;;;;3.17;0.90;;;9.80;99.90;;;;;;4910543;29;20230;-78
2024/02/13 18:27:46;;;;;;;1.67;0.80;;;9.80;99.90;;;;;;4917978;29;20214;-79
2024/02/13 18:30:15;;;;;;;0.83;0.60;;;9.80;99.90;;;;;;4918360;29;20308;-77
2024/02/13 18:32:42;;;;;;;2.57;0.80;;;9.80;99.90;;;;;;4915475;29;20265;-77
2024/02/13 18:35:10;;;;;;;8.43;3.20;;;9.80;99.90;;;;;;4904432;29;20276;-80
2024/02/13 18:37:39;;;;;;;0.77;0.70;;;9.70;99.90;;;;;;4918312;29;20216;-80
2024/02/13 18:40:09;;;;;;;0.60;0.43;;;9.70;99.90;;;;;;4919655;29;20609;-79
2024/02/13 18:42:36;;;;;;;0.90;0.57;;;9.60;99.90;;;;;;4918044;29;20216;-80
2024/02/13 18:45:03;;;;;;;1.70;0.70;;;9.60;99.90;;;;;;4917942;29;20316;-80
2024/02/13 18:47:30;;;;;;;1.10;0.67;;;9.60;99.90;;;;;;4913814;29;20237;-80
2024/02/13 18:49:57;;;;;;;2.23;0.90;;;9.50;99.90;;;;;;4915337;29;20213;-81
2024/02/13 18:52:24;;;;;;;1.53;0.83;;;9.60;99.90;;;;;;4918725;29;20273;-78
2024/02/13 18:54:51;;;;;;;1.57;0.83;;;9.60;99.90;;;;;;4919479;29;20229;-80
2024/02/13 18:57:20;;;;;;;2.03;0.93;;;9.60;99.90;;;;;;4918274;29;20248;-80
2024/02/13 18:59:47;;;;;;;2.10;0.80;;;9.70;99.90;;;;;;4912039;29;20272;-81
2024/02/13 19:02:17;;;;;;;1.00;0.60;;;9.70;99.90;;;;;;4918808;29;20202;-79
2024/02/13 19:04:43;;;;;;;2.27;0.77;;;9.70;99.90;;;;;;4919282;29;20768;-79
2024/02/13 19:07:10;;;;;;;2.03;0.60;;;9.70;99.90;;;;;;4908397;29;20318;-80
2024/02/13 19:09:37;;;;;;;1.53;0.80;;;9.80;99.90;;;;;;4914845;29;20618;-81
2024/02/13 19:12:06;;;;;;;1.30;0.40;;;9.80;99.90;;;;;;4912282;29;20249;-80
2024/02/13 19:14:34;;;;;;;1.07;0.50;;;9.70;99.90;;;;;;4912498;29;20233;-81
2024/02/13 19:17:03;;;;;;;0.83;0.50;;;9.70;99.90;;;;;;4912169;29;20217;-81
2024/02/13 19:19:30;;;;;;;0.80;0.47;;;9.70;99.90;;;;;;4917263;29;20296;-78
2024/02/13 19:21:57;;;;;;;3.43;0.70;;;9.80;99.90;;;;;;4916673;29;20625;-82
2024/02/13 19:24:24;;;;;;;1.00;0.60;;;9.70;99.90;;;;;;4916780;29;20285;-81
2024/02/13 19:26:52;;;;;;;1.00;0.53;;;9.80;99.90;;;;;;4910215;29;20333;-81
2024/02/13 19:29:19;;;;;;;2.40;0.73;;;9.80;99.90;;;;;;4913445;29;20210;-82
2024/02/13 19:31:47;;;;;;;0.70;0.43;;;9.70;99.90;;;;;;4917147;29;20245;-81
2024/02/13 19:34:17;;;;;;;4.47;0.70;;;9.70;99.90;;;;;;4916551;29;20245;-80
2024/02/13 19:36:44;;;;;;;1.97;0.67;;;9.70;99.90;;;;;;4908859;29;20238;-79
2024/02/13 19:39:12;;;;;;;1.27;0.40;;;9.70;99.90;;;;;;4915953;29;20297;-80
2024/02/13 19:41:43;;;;;;;1.97;0.63;;;9.70;99.90;;;;;;4913339;29;20202;-81
2024/02/13 19:44:10;;;;;;;2.80;1.47;;;9.40;99.90;;;;;;4917638;29;20224;-81
2024/02/13 19:46:37;;;;;;;0.80;0.47;;;9.40;99.90;;;;;;4917591;29;20241;-79
2024/02/13 19:49:05;;;;;;;0.60;0.33;;;9.30;99.90;;;;;;4917828;29;20303;-80
2024/02/13 19:51:32;;;;;;;0.90;0.53;;;9.30;99.90;;;;;;4916835;29;20237;-78
2024/02/13 19:53:59;;;;;;;0.60;0.40;;;9.40;99.90;;;;;;4917379;29;20217;-80
2024/02/13 19:56:27;;;;;;;1.43;0.50;;;9.30;99.90;;;;;;4917113;29;20312;-79
2024/02/13 19:58:55;;;;;;;1.17;0.57;;;9.30;99.90;;;;;;4917307;29;20213;-81
2024/02/13 20:01:22;;;;;;;2.07;0.63;;;9.40;99.90;;;;;;4917748;29;20669;-81
2024/02/13 20:03:49;;;;;;;0.97;0.50;;;9.40;99.90;;;;;;4917661;29;20462;-81
2024/02/13 20:06:18;;;;;;;0.80;0.60;;;9.50;99.90;;;;;;4917231;29;20711;-80
2024/02/13 20:08:46;;;;;;;1.53;0.47;;;9.40;99.90;;;;;;4916628;29;20224;-81
2024/02/13 20:11:16;;;;;;;0.40;0.40;;;9.40;99.90;;;;;;4916366;29;20209;-81
2024/02/13 20:13:43;;;;;;;1.97;0.60;;;9.40;99.90;;;;;;4917665;29;20198;-81
2024/02/13 20:16:12;;;;;;;3.77;0.60;;;9.40;99.90;;;;;;4917574;29;20590;-81
2024/02/13 20:18:39;;;;;;;1.10;0.60;;;9.40;99.90;;;;;;4916855;29;20241;-82
2024/02/13 20:21:06;;;;;;;0.70;0.50;;;9.30;99.90;;;;;;4916806;29;20217;-81
2024/02/13 20:23:35;;;;;;;1.63;0.50;;;9.30;99.90;;;;;;4910576;29;20202;-82
2024/02/13 20:26:03;;;;;;;0.67;0.30;;;9.30;99.90;;;;;;4912700;29;20264;-81
2024/02/13 20:28:30;;;;;;;1.63;0.50;;;9.20;99.90;;;;;;4916889;29;20356;-79
2024/02/13 20:30:57;;;;;;;1.03;0.53;;;9.20;99.90;;;;;;4916899;29;20220;-80
2024/02/13 20:33:25;;;;;;;0.93;0.40;;;9.20;99.90;;;;;;4917260;29;20220;-81
2024/02/13 20:35:59;;;;;;;3.23;0.80;;;9.20;99.90;;;;;;4917423;29;20226;-81
2024/02/13 20:38:26;;;;;;;0.40;0.30;;;9.10;99.90;;;;;;4918843;29;20209;-81
2024/02/13 20:40:56;;;;;;;1.20;0.73;;;9.10;99.90;;;;;;4918367;29;20223;-82
2024/02/13 20:43:23;;;;;;;1.17;0.50;;;9.10;99.90;;;;;;4921803;29;20564;-81
2024/02/13 20:45:52;;;;;;;1.07;0.67;;;8.90;99.90;;;;;;4921642;29;20772;-80
2024/02/13 20:48:19;;;;;;;1.53;0.50;;;8.90;99.90;;;;;;4922086;29;20236;-81
2024/02/13 20:50:48;;;;;;;1.10;0.60;;;8.90;99.90;;;;;;4921923;29;20292;-81
2024/02/13 20:53:16;;;;;;;1.10;0.70;;;8.80;99.90;;;;;;4933448;29;20220;-80
2024/02/13 20:55:44;;;;;;;1.20;0.70;;;8.70;99.90;;;;;;4935790;29;20225;-81
2024/02/13 20:58:13;;;;;;;2.27;0.63;;;8.70;99.90;;;;;;4936032;29;20258;-80
2024/02/13 21:00:42;;;;;;;1.23;0.70;;;8.80;99.90;;;;;;4934275;29;20273;-80
2024/02/13 21:03:09;;;;;;;1.43;0.60;;;8.70;99.90;;;;;;4926498;29;20213;-80
2024/02/13 21:05:36;;;;;;;1.63;0.50;;;8.70;99.90;;;;;;4916071;29;20225;-80
2024/02/13 21:08:04;;;;;;;0.60;0.60;;;8.60;99.90;;;;;;4923451;29;20237;-78
2024/02/13 21:10:31;;;;;;;0.83;0.60;;;8.60;99.90;;;;;;4917783;29;20207;-80
2024/02/13 21:12:58;;;;;;;0.90;0.60;;;8.60;99.90;;;;;;4915426;29;20209;-80
2024/02/13 21:15:28;;;;;;;1.43;0.70;;;8.50;99.90;;;;;;4917929;29;20296;-80
2024/02/13 21:17:55;;;;;;;0.60;0.50;;;8.50;99.90;;;;;;4916467;29;20218;-80
2024/02/13 21:20:29;;;;;;;0.50;0.40;;;8.50;99.90;;;;;;4917171;29;20265;-81
2024/02/13 21:25:46;;;;;;;1.43;0.70;;;8.50;99.90;;;;;;4923242;29;20246;-81
2024/02/13 21:28:13;;;;;;;1.00;0.60;;;8.50;99.90;;;;;;4934276;29;20244;-80
2024/02/13 21:30:41;;;;;;;2.30;0.60;;;8.50;99.90;;;;;;4927078;29;20238;-79
2024/02/13 21:33:09;;;;;;;3.23;0.60;;;8.40;99.90;;;;;;4922453;29;20297;-80
2024/02/13 21:35:36;;;;;;;1.40;0.50;;;8.50;99.90;;;;;;4920967;29;20719;-81
2024/02/13 21:38:04;;;;;;;1.10;0.50;;;8.40;99.90;;;;;;4921159;29;20304;-81
2024/02/13 21:40:32;;;;;;;3.43;0.77;;;8.50;99.90;;;;;;4908973;29;20577;-80
2024/02/13 21:42:59;;;;;;;1.40;0.60;;;8.50;99.90;;;;;;4916157;29;20257;-80
2024/02/13 21:45:27;;;;;;;0.40;0.37;;;8.50;99.90;;;;;;4919387;29;20240;-82
2024/02/13 21:47:56;;;;;;;1.17;0.73;;;8.50;99.90;;;;;;4919927;29;20284;-81
2024/02/13 21:50:24;;;;;;;1.87;1.03;;;8.50;99.90;;;;;;4918909;29;20297;-80
2024/02/13 21:52:51;;;;;;;1.47;1.03;;;8.60;99.90;;;;;;4911535;29;20207;-80
2024/02/13 21:55:18;;;;;;;1.17;0.63;;;8.60;99.90;;;;;;4914363;29;20260;-79
2024/02/13 21:57:45;;;;;;;0.53;0.43;;;8.60;99.90;;;;;;4917897;29;20213;-82
2024/02/13 22:00:13;;;;;;;1.13;0.70;;;8.60;99.90;;;;;;4918047;29;20300;-80
2024/02/13 22:02:40;;;;;;;0.90;0.43;;;8.60;99.90;;;;;;4918405;29;20216;-78
2024/02/13 22:05:08;;;;;;;1.73;1.03;;;8.60;99.90;;;;;;4918163;29;20256;-79
2024/02/13 22:07:37;;;;;;;1.30;0.80;;;8.60;99.90;;;;;;4917380;29;20300;-79
2024/02/13 22:10:05;;;;;;;0.60;0.53;;;8.60;99.90;;;;;;4920318;29;20238;-80
2024/02/13 22:12:32;;;;;;;0.60;0.50;;;8.60;99.90;;;;;;4920747;29;20237;-81
2024/02/13 22:14:59;;;;;;;1.00;0.50;;;8.60;99.90;;;;;;4919869;29;20308;-79
2024/02/13 22:17:26;;;;;;;0.90;0.70;;;8.60;99.90;;;;;;4919784;29;20709;-80
2024/02/13 22:19:53;;;;;;;1.77;0.60;;;8.70;99.90;;;;;;4918488;29;20227;-79
